sensor_id;sensor_type;location;lat;lon;timestamp;pressure;altitude;pressure_sealevel;temperature;humidity
76519;BME280;67029;51.054;13.798;2024-02-04T00:00:28;100657.53;;;12.63;62.02
76519;BME280;67029;51.054;13.798;2024-02-04T00:02:58;100673.38;;;12.54;62.21
76519;BME280;67029;51.054;13.798;2024-02-04T00:05:29;100671.18;;;12.60;62.18
76519;BME280;67029;51.054;13.798;2024-02-04T00:07:58;100668.48;;;12.57;62.28
76519;BME280;67029;51.054;13.798;2024-02-04T00:10:28;100667.31;;;12.58;62.21
76519;BME280;67029;51.054;13.798;2024-02-04T00:12:58;100667.48;;;12.58;62.28
76519;BME280;67029;51.054;13.798;2024-02-04T00:15:31;100665.95;;;12.61;62.14
76519;BME280;67029;51.054;13.798;2024-02-04T00:17:58;100665.20;;;12.61;62.18
76519;BME280;67029;51.054;13.798;2024-02-04T00:20:28;100654.14;;;12.64;62.23
76519;BME280;67029;51.054;13.798;2024-02-04T00:22:58;100647.62;;;12.67;62.23
76519;BME280;67029;51.054;13.798;2024-02-04T00:25:28;100648.66;;;12.61;62.44
76519;BME280;67029;51.054;13.798;2024-02-04T00:27:58;100646.62;;;12.57;62.75
76519;BME280;67029;51.054;13.798;2024-02-04T00:30:28;100659.90;;;12.59;62.58
76519;BME280;67029;51.054;13.798;2024-02-04T00:32:58;100652.13;;;12.57;62.80
76519;BME280;67029;51.054;13.798;2024-02-04T00:35:29;100658.77;;;12.61;62.85
76519;BME280;67029;51.054;13.798;2024-02-04T00:37:59;100663.86;;;12.70;62.43
76519;BME280;67029;51.054;13.798;2024-02-04T00:40:29;100673.80;;;12.69;62.57
76519;BME280;67029;51.054;13.798;2024-02-04T00:42:59;100674.41;;;12.73;62.35
76519;BME280;67029;51.054;13.798;2024-02-04T00:45:29;100669.89;;;12.65;62.56
76519;BME280;67029;51.054;13.798;2024-02-04T00:47:59;100676.41;;;12.62;62.67
76519;BME280;67029;51.054;13.798;2024-02-04T00:50:29;100672.27;;;12.60;62.75
76519;BME280;67029;51.054;13.798;2024-02-04T00:52:59;100690.66;;;12.59;63.00
76519;BME280;67029;51.054;13.798;2024-02-04T00:55:29;100684.67;;;12.57;63.11
76519;BME280;67029;51.054;13.798;2024-02-04T00:57:59;100680.06;;;12.56;63.30
76519;BME280;67029;51.054;13.798;2024-02-04T01:00:29;100656.02;;;12.57;63.23
76519;BME280;67029;51.054;13.798;2024-02-04T01:02:59;100660.45;;;12.56;63.27
76519;BME280;67029;51.054;13.798;2024-02-04T01:05:29;100661.33;;;12.50;63.20
76519;BME280;67029;51.054;13.798;2024-02-04T01:07:59;100664.50;;;12.48;63.21
76519;BME280;67029;51.054;13.798;2024-02-04T01:10:29;100654.91;;;12.42;63.07
76519;BME280;67029;51.054;13.798;2024-02-04T01:12:59;100650.34;;;12.43;62.99
76519;BME280;67029;51.054;13.798;2024-02-04T01:15:29;100658.20;;;12.33;63.25
76519;BME280;67029;51.054;13.798;2024-02-04T01:17:59;100656.08;;;12.32;63.22
76519;BME280;67029;51.054;13.798;2024-02-04T01:20:29;100649.41;;;12.36;63.03
76519;BME280;67029;51.054;13.798;2024-02-04T01:22:59;100659.33;;;12.31;62.87
76519;BME280;67029;51.054;13.798;2024-02-04T01:25:29;100662.66;;;12.29;62.78
76519;BME280;67029;51.054;13.798;2024-02-04T01:27:59;100669.33;;;12.30;62.70
76519;BME280;67029;51.054;13.798;2024-02-04T01:30:29;100661.53;;;12.36;62.49
76519;BME280;67029;51.054;13.798;2024-02-04T01:32:59;100660.56;;;12.39;62.39
76519;BME280;67029;51.054;13.798;2024-02-04T01:35:29;100664.72;;;12.38;62.32
76519;BME280;67029;51.054;13.798;2024-02-04T01:37:59;100665.00;;;12.37;62.29
76519;BME280;67029;51.054;13.798;2024-02-04T01:40:29;100662.12;;;12.43;62.13
76519;BME280;67029;51.054;13.798;2024-02-04T01:43:00;100658.69;;;12.41;62.03
76519;BME280;67029;51.054;13.798;2024-02-04T01:45:30;100661.70;;;12.42;61.98
76519;BME280;67029;51.054;13.798;2024-02-04T01:47:59;100659.67;;;12.51;61.67
76519;BME280;67029;51.054;13.798;2024-02-04T01:50:29;100661.51;;;12.53;61.53
76519;BME280;67029;51.054;13.798;2024-02-04T01:53:00;100667.16;;;12.55;61.22
76519;BME280;67029;51.054;13.798;2024-02-04T01:55:30;100656.41;;;12.56;61.15
76519;BME280;67029;51.054;13.798;2024-02-04T01:58:02;100661.38;;;12.52;61.08
76519;BME280;67029;51.054;13.798;2024-02-04T02:00:31;100666.78;;;12.53;60.92
76519;BME280;67029;51.054;13.798;2024-02-04T02:03:03;100655.16;;;12.43;60.87
76519;BME280;67029;51.054;13.798;2024-02-04T02:05:32;100658.20;;;12.39;60.91
76519;BME280;67029;51.054;13.798;2024-02-04T02:08:03;100661.35;;;12.32;60.96
76519;BME280;67029;51.054;13.798;2024-02-04T02:10:33;100653.70;;;12.28;61.00
76519;BME280;67029;51.054;13.798;2024-02-04T02:13:15;100643.90;;;12.27;60.97
76519;BME280;67029;51.054;13.798;2024-02-04T02:15:37;100650.46;;;12.19;61.15
76519;BME280;67029;51.054;13.798;2024-02-04T02:18:22;100642.34;;;12.17;61.25
76519;BME280;67029;51.054;13.798;2024-02-04T02:20:47;100636.66;;;12.23;61.16
76519;BME280;67029;51.054;13.798;2024-02-04T02:23:10;100635.42;;;12.26;61.15
76519;BME280;67029;51.054;13.798;2024-02-04T02:25:38;100636.34;;;12.23;61.21
76519;BME280;67029;51.054;13.798;2024-02-04T02:28:06;100619.86;;;12.30;61.14
76519;BME280;67029;51.054;13.798;2024-02-04T02:30:36;100619.52;;;12.34;60.99
76519;BME280;67029;51.054;13.798;2024-02-04T02:33:06;100628.70;;;12.33;61.02
76519;BME280;67029;51.054;13.798;2024-02-04T02:35:37;100631.71;;;12.30;61.29
76519;BME280;67029;51.054;13.798;2024-02-04T02:38:23;100634.83;;;12.27;61.28
76519;BME280;67029;51.054;13.798;2024-02-04T02:40:54;100627.62;;;12.27;61.34
76519;BME280;67029;51.054;13.798;2024-02-04T02:43:10;100636.55;;;12.25;61.42
76519;BME280;67029;51.054;13.798;2024-02-04T02:45:42;100645.27;;;12.20;61.63
76519;BME280;67029;51.054;13.798;2024-02-04T02:48:09;100645.19;;;12.14;61.89
76519;BME280;67029;51.054;13.798;2024-02-04T02:50:39;100642.48;;;12.20;61.99
76519;BME280;67029;51.054;13.798;2024-02-04T02:53:09;100632.19;;;12.27;61.75
76519;BME280;67029;51.054;13.798;2024-02-04T02:55:39;100623.64;;;12.27;61.84
76519;BME280;67029;51.054;13.798;2024-02-04T02:58:09;100621.64;;;12.31;61.89
76519;BME280;67029;51.054;13.798;2024-02-04T03:00:39;100617.55;;;12.21;62.28
76519;BME280;67029;51.054;13.798;2024-02-04T03:03:09;100618.58;;;12.26;62.50
76519;BME280;67029;51.054;13.798;2024-02-04T03:05:39;100616.27;;;12.27;62.38
76519;BME280;67029;51.054;13.798;2024-02-04T03:08:09;100623.05;;;12.27;62.46
76519;BME280;67029;51.054;13.798;2024-02-04T03:10:39;100626.44;;;12.21;62.89
76519;BME280;67029;51.054;13.798;2024-02-04T03:13:09;100620.80;;;12.20;63.04
76519;BME280;67029;51.054;13.798;2024-02-04T03:15:39;100615.27;;;12.26;62.88
76519;BME280;67029;51.054;13.798;2024-02-04T03:18:11;100623.38;;;12.32;62.73
76519;BME280;67029;51.054;13.798;2024-02-04T03:20:39;100619.89;;;12.39;62.70
76519;BME280;67029;51.054;13.798;2024-02-04T03:23:11;100618.36;;;12.39;62.64
76519;BME280;67029;51.054;13.798;2024-02-04T03:25:41;100622.55;;;12.36;62.60
76519;BME280;67029;51.054;13.798;2024-02-04T03:28:10;100621.28;;;12.37;62.63
76519;BME280;67029;51.054;13.798;2024-02-04T03:30:40;100612.12;;;12.37;62.67
76519;BME280;67029;51.054;13.798;2024-02-04T03:33:10;100618.64;;;12.33;62.76
76519;BME280;67029;51.054;13.798;2024-02-04T03:35:41;100614.14;;;12.39;62.70
76519;BME280;67029;51.054;13.798;2024-02-04T03:38:11;100629.28;;;12.39;62.60
76519;BME280;67029;51.054;13.798;2024-02-04T03:40:41;100630.38;;;12.40;62.59
76519;BME280;67029;51.054;13.798;2024-02-04T03:43:11;100628.45;;;12.45;62.32
76519;BME280;67029;51.054;13.798;2024-02-04T03:45:41;100640.78;;;12.52;62.00
76519;BME280;67029;51.054;13.798;2024-02-04T03:48:11;100646.39;;;12.50;61.98
76519;BME280;67029;51.054;13.798;2024-02-04T03:50:41;100642.73;;;12.52;61.83
76519;BME280;67029;51.054;13.798;2024-02-04T03:53:11;100642.69;;;12.54;61.68
76519;BME280;67029;51.054;13.798;2024-02-04T03:55:41;100637.57;;;12.55;61.60
76519;BME280;67029;51.054;13.798;2024-02-04T03:58:11;100646.48;;;12.56;61.55
76519;BME280;67029;51.054;13.798;2024-02-04T04:00:41;100647.02;;;12.53;61.54
76519;BME280;67029;51.054;13.798;2024-02-04T04:03:11;100650.89;;;12.56;61.57
76519;BME280;67029;51.054;13.798;2024-02-04T04:05:41;100651.00;;;12.60;61.32
76519;BME280;67029;51.054;13.798;2024-02-04T04:08:11;100650.05;;;12.54;61.38
76519;BME280;67029;51.054;13.798;2024-02-04T04:10:42;100635.87;;;12.52;61.59
76519;BME280;67029;51.054;13.798;2024-02-04T04:13:12;100632.07;;;12.55;61.56
76519;BME280;67029;51.054;13.798;2024-02-04T04:15:42;100618.47;;;12.53;61.58
76519;BME280;67029;51.054;13.798;2024-02-04T04:18:12;100610.46;;;12.56;61.45
76519;BME280;67029;51.054;13.798;2024-02-04T04:20:42;100615.22;;;12.50;61.58
76519;BME280;67029;51.054;13.798;2024-02-04T04:23:13;100620.11;;;12.46;61.47
76519;BME280;67029;51.054;13.798;2024-02-04T04:25:43;100622.28;;;12.43;61.50
76519;BME280;67029;51.054;13.798;2024-02-04T04:28:13;100615.66;;;12.43;61.59
76519;BME280;67029;51.054;13.798;2024-02-04T04:30:43;100611.28;;;12.42;61.56
76519;BME280;67029;51.054;13.798;2024-02-04T04:33:13;100604.80;;;12.34;61.76
76519;BME280;67029;51.054;13.798;2024-02-04T04:35:43;100607.89;;;12.36;61.75
76519;BME280;67029;51.054;13.798;2024-02-04T04:38:13;100609.61;;;12.35;62.00
76519;BME280;67029;51.054;13.798;2024-02-04T04:40:43;100607.34;;;12.39;61.86
76519;BME280;67029;51.054;13.798;2024-02-04T04:43:13;100615.66;;;12.38;61.82
76519;BME280;67029;51.054;13.798;2024-02-04T04:45:43;100617.91;;;12.40;61.80
76519;BME280;67029;51.054;13.798;2024-02-04T04:48:13;100610.98;;;12.39;61.80
76519;BME280;67029;51.054;13.798;2024-02-04T04:50:43;100605.98;;;12.35;62.06
76519;BME280;67029;51.054;13.798;2024-02-04T04:53:13;100599.36;;;12.31;62.20
76519;BME280;67029;51.054;13.798;2024-02-04T04:55:43;100602.37;;;12.26;62.23
76519;BME280;67029;51.054;13.798;2024-02-04T04:58:13;100607.67;;;12.28;62.27
76519;BME280;67029;51.054;13.798;2024-02-04T05:00:43;100595.88;;;12.36;62.12
76519;BME280;67029;51.054;13.798;2024-02-04T05:03:13;100605.97;;;12.40;61.98
76519;BME280;67029;51.054;13.798;2024-02-04T05:05:43;100590.94;;;12.37;61.97
76519;BME280;67029;51.054;13.798;2024-02-04T05:08:14;100579.83;;;12.38;61.93
76519;BME280;67029;51.054;13.798;2024-02-04T05:10:43;100569.02;;;12.34;61.98
76519;BME280;67029;51.054;13.798;2024-02-04T05:13:13;100578.47;;;12.37;61.86
76519;BME280;67029;51.054;13.798;2024-02-04T05:15:43;100575.23;;;12.39;61.78
76519;BME280;67029;51.054;13.798;2024-02-04T05:18:13;100574.95;;;12.40;61.65
76519;BME280;67029;51.054;13.798;2024-02-04T05:20:43;100573.81;;;12.33;61.84
76519;BME280;67029;51.054;13.798;2024-02-04T05:23:13;100568.12;;;12.33;61.89
76519;BME280;67029;51.054;13.798;2024-02-04T05:25:43;100564.73;;;12.29;61.99
76519;BME280;67029;51.054;13.798;2024-02-04T05:28:13;100554.72;;;12.28;62.14
76519;BME280;67029;51.054;13.798;2024-02-04T05:30:44;100557.64;;;12.36;62.25
76519;BME280;67029;51.054;13.798;2024-02-04T05:33:14;100563.01;;;12.35;62.11
76519;BME280;67029;51.054;13.798;2024-02-04T05:35:44;100559.83;;;12.32;62.39
76519;BME280;67029;51.054;13.798;2024-02-04T05:38:16;100562.31;;;12.36;62.31
76519;BME280;67029;51.054;13.798;2024-02-04T05:40:45;100563.59;;;12.34;62.37
76519;BME280;67029;51.054;13.798;2024-02-04T05:43:15;100559.94;;;12.31;62.69
76519;BME280;67029;51.054;13.798;2024-02-04T05:45:45;100549.95;;;12.34;62.67
76519;BME280;67029;51.054;13.798;2024-02-04T05:48:15;100549.20;;;12.34;62.58
76519;BME280;67029;51.054;13.798;2024-02-04T05:50:45;100541.78;;;12.42;62.55
76519;BME280;67029;51.054;13.798;2024-02-04T05:53:15;100538.81;;;12.43;62.55
76519;BME280;67029;51.054;13.798;2024-02-04T05:55:46;100544.12;;;12.34;62.82
76519;BME280;67029;51.054;13.798;2024-02-04T05:58:15;100539.02;;;12.31;62.97
76519;BME280;67029;51.054;13.798;2024-02-04T06:00:45;100536.52;;;12.23;63.13
76519;BME280;67029;51.054;13.798;2024-02-04T06:03:15;100529.53;;;12.21;63.38
76519;BME280;67029;51.054;13.798;2024-02-04T06:05:45;100528.88;;;12.25;63.23
76519;BME280;67029;51.054;13.798;2024-02-04T06:08:15;100537.36;;;12.23;63.13
76519;BME280;67029;51.054;13.798;2024-02-04T06:10:45;100535.25;;;12.19;63.33
76519;BME280;67029;51.054;13.798;2024-02-04T06:13:15;100535.66;;;12.24;63.21
76519;BME280;67029;51.054;13.798;2024-02-04T06:15:45;100532.16;;;12.35;63.10
76519;BME280;67029;51.054;13.798;2024-02-04T06:18:15;100535.89;;;12.40;62.94
76519;BME280;67029;51.054;13.798;2024-02-04T06:20:45;100538.21;;;12.38;63.04
76519;BME280;67029;51.054;13.798;2024-02-04T06:23:15;100535.19;;;12.46;63.00
76519;BME280;67029;51.054;13.798;2024-02-04T06:25:45;100541.71;;;12.55;62.93
76519;BME280;67029;51.054;13.798;2024-02-04T06:28:15;100538.08;;;12.55;62.93
76519;BME280;67029;51.054;13.798;2024-02-04T06:30:45;100541.12;;;12.51;63.29
76519;BME280;67029;51.054;13.798;2024-02-04T06:33:15;100528.92;;;12.50;63.19
76519;BME280;67029;51.054;13.798;2024-02-04T06:35:45;100525.91;;;12.49;63.49
76519;BME280;67029;51.054;13.798;2024-02-04T06:38:15;100503.59;;;12.49;63.51
76519;BME280;67029;51.054;13.798;2024-02-04T06:40:45;100497.67;;;12.53;63.61
76519;BME280;67029;51.054;13.798;2024-02-04T06:43:15;100495.12;;;12.53;63.52
76519;BME280;67029;51.054;13.798;2024-02-04T06:45:45;100494.94;;;12.56;63.33
76519;BME280;67029;51.054;13.798;2024-02-04T06:48:18;100500.94;;;12.56;63.29
76519;BME280;67029;51.054;13.798;2024-02-04T06:50:46;100509.97;;;12.48;63.72
76519;BME280;67029;51.054;13.798;2024-02-04T06:53:16;100502.34;;;12.48;63.58
76519;BME280;67029;51.054;13.798;2024-02-04T06:55:46;100507.10;;;12.39;63.86
76519;BME280;67029;51.054;13.798;2024-02-04T06:58:16;100505.31;;;12.39;63.70
76519;BME280;67029;51.054;13.798;2024-02-04T07:00:46;100516.30;;;12.41;63.61
76519;BME280;67029;51.054;13.798;2024-02-04T07:03:16;100515.38;;;12.40;63.62
76519;BME280;67029;51.054;13.798;2024-02-04T07:05:46;100509.05;;;12.47;63.54
76519;BME280;67029;51.054;13.798;2024-02-04T07:08:16;100503.30;;;12.51;63.28
76519;BME280;67029;51.054;13.798;2024-02-04T07:10:46;100499.34;;;12.50;63.23
76519;BME280;67029;51.054;13.798;2024-02-04T07:13:16;100495.75;;;12.52;63.16
76519;BME280;67029;51.054;13.798;2024-02-04T07:15:47;100495.09;;;12.56;63.04
76519;BME280;67029;51.054;13.798;2024-02-04T07:18:17;100501.02;;;12.66;62.96
76519;BME280;67029;51.054;13.798;2024-02-04T07:20:47;100490.73;;;12.57;63.02
76519;BME280;67029;51.054;13.798;2024-02-04T07:23:16;100497.91;;;12.59;63.18
76519;BME280;67029;51.054;13.798;2024-02-04T07:25:47;100491.70;;;12.46;63.52
76519;BME280;67029;51.054;13.798;2024-02-04T07:28:17;100495.38;;;12.50;63.57
76519;BME280;67029;51.054;13.798;2024-02-04T07:30:47;100486.94;;;12.52;63.60
76519;BME280;67029;51.054;13.798;2024-02-04T07:33:17;100480.34;;;12.52;63.52
76519;BME280;67029;51.054;13.798;2024-02-04T07:35:47;100476.22;;;12.46;63.87
76519;BME280;67029;51.054;13.798;2024-02-04T07:38:17;100493.96;;;12.48;63.80
76519;BME280;67029;51.054;13.798;2024-02-04T07:40:47;100486.77;;;12.51;63.74
76519;BME280;67029;51.054;13.798;2024-02-04T07:43:17;100479.50;;;12.64;63.29
76519;BME280;67029;51.054;13.798;2024-02-04T07:45:47;100467.83;;;12.63;63.32
76519;BME280;67029;51.054;13.798;2024-02-04T07:48:17;100467.12;;;12.69;63.27
76519;BME280;67029;51.054;13.798;2024-02-04T07:50:47;100471.29;;;12.77;63.11
76519;BME280;67029;51.054;13.798;2024-02-04T07:53:17;100459.33;;;12.72;63.17
76519;BME280;67029;51.054;13.798;2024-02-04T07:55:47;100457.77;;;12.78;63.12
76519;BME280;67029;51.054;13.798;2024-02-04T07:58:17;100474.91;;;12.86;62.94
76519;BME280;67029;51.054;13.798;2024-02-04T08:00:47;100476.24;;;12.90;62.81
76519;BME280;67029;51.054;13.798;2024-02-04T08:03:17;100477.30;;;12.93;62.81
76519;BME280;67029;51.054;13.798;2024-02-04T08:05:47;100468.00;;;12.99;62.58
76519;BME280;67029;51.054;13.798;2024-02-04T08:08:17;100460.37;;;13.00;62.36
76519;BME280;67029;51.054;13.798;2024-02-04T08:10:47;100459.81;;;13.14;61.78
76519;BME280;67029;51.054;13.798;2024-02-04T08:13:17;100471.88;;;13.24;61.54
76519;BME280;67029;51.054;13.798;2024-02-04T08:15:47;100474.53;;;13.32;61.13
76519;BME280;67029;51.054;13.798;2024-02-04T08:18:17;100465.14;;;13.26;61.25
76519;BME280;67029;51.054;13.798;2024-02-04T08:20:47;100447.64;;;13.38;60.91
76519;BME280;67029;51.054;13.798;2024-02-04T08:23:17;100452.77;;;13.44;60.68
76519;BME280;67029;51.054;13.798;2024-02-04T08:25:47;100441.31;;;13.49;60.53
76519;BME280;67029;51.054;13.798;2024-02-04T08:28:17;100452.73;;;13.58;60.59
76519;BME280;67029;51.054;13.798;2024-02-04T08:30:47;100438.59;;;13.60;60.10
76519;BME280;67029;51.054;13.798;2024-02-04T08:33:17;100469.14;;;13.67;59.72
76519;BME280;67029;51.054;13.798;2024-02-04T08:35:48;100450.31;;;13.69;59.44
76519;BME280;67029;51.054;13.798;2024-02-04T08:38:18;100454.91;;;13.80;59.44
76519;BME280;67029;51.054;13.798;2024-02-04T08:40:48;100470.03;;;13.75;59.60
76519;BME280;67029;51.054;13.798;2024-02-04T08:43:18;100475.48;;;13.86;59.42
76519;BME280;67029;51.054;13.798;2024-02-04T08:45:48;100465.07;;;13.91;58.92
76519;BME280;67029;51.054;13.798;2024-02-04T08:48:18;100456.20;;;13.93;58.92
76519;BME280;67029;51.054;13.798;2024-02-04T08:50:48;100465.46;;;13.92;58.84
76519;BME280;67029;51.054;13.798;2024-02-04T08:53:18;100474.68;;;13.94;58.81
76519;BME280;67029;51.054;13.798;2024-02-04T08:55:48;100475.31;;;13.96;58.71
76519;BME280;67029;51.054;13.798;2024-02-04T08:58:18;100472.12;;;14.04;58.70
76519;BME280;67029;51.054;13.798;2024-02-04T09:00:48;100477.09;;;14.06;58.70
76519;BME280;67029;51.054;13.798;2024-02-04T09:03:18;100463.45;;;14.08;58.75
76519;BME280;67029;51.054;13.798;2024-02-04T09:05:48;100469.47;;;14.15;58.72
76519;BME280;67029;51.054;13.798;2024-02-04T09:08:18;100475.67;;;14.12;58.58
76519;BME280;67029;51.054;13.798;2024-02-04T09:10:48;100483.03;;;14.07;58.80
76519;BME280;67029;51.054;13.798;2024-02-04T09:13:18;100483.53;;;14.03;59.08
76519;BME280;67029;51.054;13.798;2024-02-04T09:15:50;100496.47;;;13.95;59.52
76519;BME280;67029;51.054;13.798;2024-02-04T09:18:19;100526.73;;;13.84;60.16
76519;BME280;67029;51.054;13.798;2024-02-04T09:20:49;100506.09;;;13.81;60.41
76519;BME280;67029;51.054;13.798;2024-02-04T09:23:19;100496.43;;;13.83;60.86
76519;BME280;67029;51.054;13.798;2024-02-04T09:25:49;100493.38;;;13.86;61.19
76519;BME280;67029;51.054;13.798;2024-02-04T09:28:19;100499.75;;;13.80;61.10
76519;BME280;67029;51.054;13.798;2024-02-04T09:30:49;100498.33;;;13.75;61.79
76519;BME280;67029;51.054;13.798;2024-02-04T09:33:19;100474.16;;;13.70;61.87
76519;BME280;67029;51.054;13.798;2024-02-04T09:35:49;100465.84;;;13.67;62.09
76519;BME280;67029;51.054;13.798;2024-02-04T09:38:20;100477.70;;;13.60;62.19
76519;BME280;67029;51.054;13.798;2024-02-04T09:40:50;100471.75;;;13.61;62.31
76519;BME280;67029;51.054;13.798;2024-02-04T09:43:20;100483.20;;;13.62;62.02
76519;BME280;67029;51.054;13.798;2024-02-04T09:45:50;100486.28;;;13.57;62.01
76519;BME280;67029;51.054;13.798;2024-02-04T09:48:20;100483.88;;;13.54;62.01
76519;BME280;67029;51.054;13.798;2024-02-04T09:50:51;100483.39;;;13.46;62.13
76519;BME280;67029;51.054;13.798;2024-02-04T09:53:26;100484.38;;;13.40;62.21
76519;BME280;67029;51.054;13.798;2024-02-04T09:55:52;100484.39;;;13.32;62.34
76519;BME280;67029;51.054;13.798;2024-02-04T09:58:22;100472.62;;;13.30;62.02
76519;BME280;67029;51.054;13.798;2024-02-04T10:00:53;100482.00;;;13.27;62.06
76519;BME280;67029;51.054;13.798;2024-02-04T10:03:22;100478.55;;;13.34;61.94
76519;BME280;67029;51.054;13.798;2024-02-04T10:05:52;100477.38;;;13.42;61.83
76519;BME280;67029;51.054;13.798;2024-02-04T10:08:22;100481.42;;;13.43;61.76
76519;BME280;67029;51.054;13.798;2024-02-04T10:10:52;100471.95;;;13.56;61.58
76519;BME280;67029;51.054;13.798;2024-02-04T10:13:22;100470.68;;;13.45;61.74
76519;BME280;67029;51.054;13.798;2024-02-04T10:15:52;100464.66;;;13.49;61.74
76519;BME280;67029;51.054;13.798;2024-02-04T10:18:22;100452.90;;;13.43;62.20
76519;BME280;67029;51.054;13.798;2024-02-04T10:20:52;100452.56;;;13.46;62.01
76519;BME280;67029;51.054;13.798;2024-02-04T10:23:23;100454.14;;;13.49;62.01
76519;BME280;67029;51.054;13.798;2024-02-04T10:25:59;100456.64;;;13.46;62.18
76519;BME280;67029;51.054;13.798;2024-02-04T10:28:24;100443.81;;;13.54;62.04
76519;BME280;67029;51.054;13.798;2024-02-04T10:30:54;100442.47;;;13.57;62.08
76519;BME280;67029;51.054;13.798;2024-02-04T10:33:24;100436.83;;;13.65;61.93
76519;BME280;67029;51.054;13.798;2024-02-04T10:35:54;100435.95;;;13.67;61.86
76519;BME280;67029;51.054;13.798;2024-02-04T10:38:24;100430.38;;;13.62;62.03
76519;BME280;67029;51.054;13.798;2024-02-04T10:40:55;100424.87;;;13.65;62.13
76519;BME280;67029;51.054;13.798;2024-02-04T10:43:28;100418.72;;;13.70;62.05
76519;BME280;67029;51.054;13.798;2024-02-04T10:45:56;100410.91;;;13.69;62.09
76519;BME280;67029;51.054;13.798;2024-02-04T10:48:27;100403.83;;;13.67;62.21
76519;BME280;67029;51.054;13.798;2024-02-04T10:50:57;100404.73;;;13.72;62.20
76519;BME280;67029;51.054;13.798;2024-02-04T10:53:26;100401.22;;;13.77;61.97
76519;BME280;67029;51.054;13.798;2024-02-04T10:56:00;100397.06;;;13.80;61.97
76519;BME280;67029;51.054;13.798;2024-02-04T10:58:27;100391.81;;;13.83;62.05
76519;BME280;67029;51.054;13.798;2024-02-04T11:00:57;100385.83;;;13.78;61.90
76519;BME280;67029;51.054;13.798;2024-02-04T11:03:28;100395.43;;;13.73;62.07
76519;BME280;67029;51.054;13.798;2024-02-04T11:05:57;100391.24;;;13.65;62.20
76519;BME280;67029;51.054;13.798;2024-02-04T11:08:28;100386.55;;;13.59;62.27
76519;BME280;67029;51.054;13.798;2024-02-04T11:10:58;100374.91;;;13.60;62.12
76519;BME280;67029;51.054;13.798;2024-02-04T11:13:29;100370.31;;;13.57;62.21
76519;BME280;67029;51.054;13.798;2024-02-04T11:16:01;100361.97;;;13.68;61.74
76519;BME280;67029;51.054;13.798;2024-02-04T11:18:56;100362.71;;;13.62;61.88
76519;BME280;67029;51.054;13.798;2024-02-04T11:24:07;100363.16;;;13.61;62.08
76519;BME280;67029;51.054;13.798;2024-02-04T11:26:01;100353.54;;;13.55;62.30
76519;BME280;67029;51.054;13.798;2024-02-04T11:28:31;100343.02;;;13.65;62.17
76519;BME280;67029;51.054;13.798;2024-02-04T11:31:01;100334.02;;;13.58;61.97
76519;BME280;67029;51.054;13.798;2024-02-04T11:33:31;100333.80;;;13.50;62.19
76519;BME280;67029;51.054;13.798;2024-02-04T11:36:05;100338.73;;;13.60;61.90
76519;BME280;67029;51.054;13.798;2024-02-04T11:38:36;100336.09;;;13.60;61.78
76519;BME280;67029;51.054;13.798;2024-02-04T11:41:03;100338.48;;;13.63;61.56
76519;BME280;67029;51.054;13.798;2024-02-04T11:43:33;100334.56;;;13.63;61.38
76519;BME280;67029;51.054;13.798;2024-02-04T11:46:04;100334.98;;;13.74;61.00
76519;BME280;67029;51.054;13.798;2024-02-04T11:48:34;100334.31;;;13.70;60.90
76519;BME280;67029;51.054;13.798;2024-02-04T11:51:05;100351.44;;;13.71;60.86
76519;BME280;67029;51.054;13.798;2024-02-04T11:53:35;100329.78;;;13.68;60.65
76519;BME280;67029;51.054;13.798;2024-02-04T11:56:05;100324.59;;;13.56;61.01
76519;BME280;67029;51.054;13.798;2024-02-04T11:58:35;100336.98;;;13.48;61.32
76519;BME280;67029;51.054;13.798;2024-02-04T12:01:05;100327.02;;;13.42;61.59
76519;BME280;67029;51.054;13.798;2024-02-04T12:03:37;100325.99;;;13.43;61.69
76519;BME280;67029;51.054;13.798;2024-02-04T12:06:05;100318.28;;;13.46;61.72
76519;BME280;67029;51.054;13.798;2024-02-04T12:08:36;100317.35;;;13.52;61.49
76519;BME280;67029;51.054;13.798;2024-02-04T12:11:07;100312.58;;;13.57;61.20
76519;BME280;67029;51.054;13.798;2024-02-04T12:13:37;100305.50;;;13.55;61.23
76519;BME280;67029;51.054;13.798;2024-02-04T12:16:07;100293.90;;;13.60;60.80
76519;BME280;67029;51.054;13.798;2024-02-04T12:18:48;100291.35;;;13.57;60.88
76519;BME280;67029;51.054;13.798;2024-02-04T12:21:07;100289.25;;;13.59;60.66
76519;BME280;67029;51.054;13.798;2024-02-04T12:23:37;100289.89;;;13.63;60.41
76519;BME280;67029;51.054;13.798;2024-02-04T12:26:07;100279.96;;;13.73;60.18
76519;BME280;67029;51.054;13.798;2024-02-04T12:28:38;100290.45;;;13.71;60.12
76519;BME280;67029;51.054;13.798;2024-02-04T12:31:07;100284.57;;;13.72;60.09
76519;BME280;67029;51.054;13.798;2024-02-04T12:33:37;100271.80;;;13.77;60.01
76519;BME280;67029;51.054;13.798;2024-02-04T12:36:09;100267.41;;;13.88;59.83
76519;BME280;67029;51.054;13.798;2024-02-04T12:38:38;100257.42;;;13.95;59.46
76519;BME280;67029;51.054;13.798;2024-02-04T12:41:12;100253.70;;;13.87;59.43
76519;BME280;67029;51.054;13.798;2024-02-04T12:43:39;100260.09;;;13.95;59.41
76519;BME280;67029;51.054;13.798;2024-02-04T12:46:09;100263.11;;;13.99;59.26
76519;BME280;67029;51.054;13.798;2024-02-04T12:48:39;100250.57;;;14.15;58.72
76519;BME280;67029;51.054;13.798;2024-02-04T12:51:09;100264.92;;;14.16;58.65
76519;BME280;67029;51.054;13.798;2024-02-04T12:53:39;100268.41;;;14.15;58.65
76519;BME280;67029;51.054;13.798;2024-02-04T12:56:09;100254.99;;;14.21;58.59